createdAt,value
2022-12-02T00:01:34.201Z,28.10
2022-12-02T00:04:07.509Z,29.20
2022-12-02T00:06:36.514Z,29.17
2022-12-02T00:09:20.455Z,26.83
2022-12-02T00:11:50.338Z,26.47
2022-12-02T00:14:25.441Z,26.07
2022-12-02T00:16:54.513Z,28.00
2022-12-02T00:19:24.414Z,27.10
2022-12-02T00:21:53.815Z,28.60
2022-12-02T00:24:23.800Z,28.60
2022-12-02T00:26:52.408Z,28.60
2022-12-02T00:29:21.806Z,28.60
2022-12-02T00:31:50.336Z,28.67
2022-12-02T00:34:18.990Z,27.43
2022-12-02T00:36:47.576Z,26.67
2022-12-02T00:39:16.946Z,26.40
2022-12-02T00:41:46.872Z,26.37
2022-12-02T00:44:32.665Z,26.70
2022-12-02T00:47:01.227Z,26.27
2022-12-02T00:49:29.763Z,25.07
2022-12-02T00:51:58.322Z,27.73
2022-12-02T00:54:27.023Z,25.80
2022-12-02T00:56:56.937Z,25.57
2022-12-02T00:59:25.478Z,24.30
2022-12-02T01:01:54.012Z,24.97
2022-12-02T01:04:22.613Z,26.00
2022-12-02T01:06:51.160Z,24.67
2022-12-02T01:09:19.770Z,26.03
2022-12-02T01:11:48.353Z,24.30
2022-12-02T01:14:18.515Z,26.60
2022-12-02T01:16:47.142Z,25.47
2022-12-02T01:19:15.886Z,28.43
2022-12-02T01:21:44.377Z,26.90
2022-12-02T01:24:13.428Z,26.53
2022-12-02T01:26:41.986Z,26.53
2022-12-02T01:29:10.834Z,25.53
2022-12-02T01:31:40.794Z,25.33
2022-12-02T01:34:09.411Z,26.80
2022-12-02T01:36:38.078Z,25.67
2022-12-02T01:39:06.747Z,25.00
2022-12-02T01:41:35.395Z,25.07
2022-12-02T01:44:04.107Z,26.00
2022-12-02T01:46:32.823Z,25.30
2022-12-02T01:49:02.978Z,24.23
2022-12-02T01:51:31.688Z,24.50
2022-12-02T01:54:00.469Z,24.00
2022-12-02T01:56:29.740Z,24.97
2022-12-02T01:58:58.519Z,23.63
2022-12-02T02:01:29.729Z,23.10
2022-12-02T02:03:58.783Z,23.87
2022-12-02T02:06:32.315Z,23.50
2022-12-02T02:09:01.043Z,23.53
2022-12-02T02:11:29.713Z,23.87
2022-12-02T02:13:58.645Z,24.20
2022-12-02T02:16:27.655Z,24.10
2022-12-02T02:18:56.642Z,26.80
2022-12-02T02:21:34.963Z,26.07
2022-12-02T02:24:05.249Z,25.10
2022-12-02T02:26:34.069Z,24.77
2022-12-02T02:29:02.776Z,25.37
2022-12-02T02:31:31.358Z,24.57
2022-12-02T02:33:59.934Z,26.17
2022-12-02T02:36:28.761Z,27.00
2022-12-02T02:38:58.337Z,25.03
2022-12-02T02:41:29.325Z,26.27
2022-12-02T02:43:57.953Z,25.53
2022-12-02T02:46:26.683Z,25.37
2022-12-02T02:48:55.672Z,24.63
2022-12-02T02:51:24.559Z,24.47
2022-12-02T02:53:54.357Z,24.10
2022-12-02T02:56:23.050Z,25.17
2022-12-02T02:58:53.028Z,25.17
2022-12-02T03:01:29.200Z,24.00
2022-12-02T03:04:03.331Z,24.30
2022-12-02T03:06:35.081Z,24.03
2022-12-02T03:09:07.233Z,24.20
2022-12-02T03:11:37.918Z,23.10
2022-12-02T03:14:15.259Z,24.10
2022-12-02T03:16:45.449Z,23.83
2022-12-02T03:19:14.867Z,24.03
2022-12-02T03:21:43.798Z,24.27
2022-12-02T03:24:12.935Z,23.17
2022-12-02T03:26:42.021Z,24.03
2022-12-02T03:29:12.972Z,25.87
2022-12-02T03:31:42.437Z,24.37
2022-12-02T03:34:12.186Z,24.93
2022-12-02T03:36:42.623Z,25.13
2022-12-02T03:39:11.708Z,24.07
2022-12-02T03:41:41.376Z,23.33
2022-12-02T03:44:11.644Z,24.50
2022-12-02T03:46:40.617Z,26.07
2022-12-02T03:49:09.823Z,25.03
2022-12-02T03:51:38.667Z,23.97
2022-12-02T03:54:07.585Z,24.67
2022-12-02T03:56:39.557Z,23.53
2022-12-02T03:59:08.503Z,25.50
2022-12-02T04:01:38.556Z,24.47
2022-12-02T04:04:07.046Z,24.70
2022-12-02T04:06:35.643Z,24.37
2022-12-02T04:09:04.416Z,24.73
2022-12-02T04:11:33.046Z,25.20
2022-12-02T04:14:01.679Z,24.13
2022-12-02T04:16:30.314Z,23.40
2022-12-02T04:19:00.403Z,26.00
2022-12-02T04:21:29.147Z,25.00
2022-12-02T04:23:57.732Z,24.87
2022-12-02T04:26:26.266Z,24.53
2022-12-02T04:28:54.823Z,24.73
2022-12-02T04:31:23.403Z,24.10
2022-12-02T04:33:51.960Z,26.67
2022-12-02T04:36:22.079Z,24.70
2022-12-02T04:38:50.633Z,28.63
2022-12-02T04:41:19.165Z,26.90
2022-12-02T04:43:47.724Z,25.67
2022-12-02T04:46:16.304Z,25.57
2022-12-02T04:48:45.293Z,25.73
2022-12-02T04:51:13.950Z,25.43
2022-12-02T04:53:43.829Z,43.37
2022-12-02T04:56:12.354Z,29.07
2022-12-02T04:58:40.910Z,26.63
2022-12-02T05:01:09.440Z,25.60
2022-12-02T05:03:38.004Z,24.90
2022-12-02T05:06:07.055Z,24.60
2022-12-02T05:08:35.682Z,25.07
2022-12-02T05:11:05.768Z,24.43
2022-12-02T05:13:34.624Z,25.40
2022-12-02T05:16:03.216Z,23.20
2022-12-02T05:18:31.928Z,22.50
2022-12-02T05:21:00.531Z,24.50
2022-12-02T05:23:29.055Z,24.13
2022-12-02T05:25:57.643Z,24.70
2022-12-02T05:28:27.606Z,24.23
2022-12-02T05:30:56.238Z,23.70
2022-12-02T05:33:24.829Z,24.93
2022-12-02T05:35:53.362Z,24.10
2022-12-02T05:38:21.940Z,24.63
2022-12-02T05:40:50.818Z,25.87
2022-12-02T05:43:22.409Z,24.80
2022-12-02T05:45:53.242Z,24.07
2022-12-02T05:48:22.154Z,24.03
2022-12-02T05:50:50.791Z,25.77
2022-12-02T05:53:25.609Z,28.07
2022-12-02T05:55:56.372Z,26.17
2022-12-02T05:58:25.190Z,24.57
2022-12-02T06:00:58.079Z,25.33
2022-12-02T06:03:27.912Z,23.27
2022-12-02T06:05:57.781Z,26.17
2022-12-02T06:08:39.539Z,25.87
2022-12-02T06:11:30.880Z,24.07
2022-12-02T06:14:02.503Z,24.80
2022-12-02T06:16:35.103Z,25.53
2022-12-02T06:19:16.161Z,24.10
2022-12-02T06:21:44.769Z,27.43
2022-12-02T06:24:13.729Z,26.60
2022-12-02T06:26:42.452Z,25.00
2022-12-02T06:29:18.277Z,25.47
2022-12-02T06:31:48.604Z,25.10
2022-12-02T06:34:36.429Z,24.87
2022-12-02T06:37:16.154Z,26.47
2022-12-02T06:40:19.875Z,24.93
2022-12-02T06:42:40.233Z,24.90
2022-12-02T06:45:28.936Z,26.03
2022-12-02T06:48:28.289Z,25.33
2022-12-02T06:51:00.577Z,25.57
2022-12-02T06:53:37.762Z,25.07
2022-12-02T06:56:14.919Z,26.90
2022-12-02T06:58:47.008Z,27.73
2022-12-02T07:01:25.667Z,25.73
2022-12-02T07:04:26.858Z,28.77
2022-12-02T07:07:00.725Z,28.90
2022-12-02T07:09:39.016Z,29.60
2022-12-02T07:12:16.881Z,29.90
2022-12-02T07:14:51.047Z,30.10
2022-12-02T07:17:28.919Z,32.47
2022-12-02T07:20:04.254Z,36.20
2022-12-02T07:22:37.060Z,42.60
2022-12-02T07:25:37.425Z,37.30
2022-12-02T07:28:26.397Z,34.07
2022-12-02T07:31:02.736Z,31.87
2022-12-02T07:33:32.023Z,30.67
2022-12-02T07:36:01.957Z,31.27
2022-12-02T07:39:04.237Z,30.43
2022-12-02T07:41:20.572Z,30.53
2022-12-02T07:43:49.232Z,33.77
2022-12-02T07:46:18.121Z,32.50
2022-12-02T07:48:46.761Z,31.97
2022-12-02T07:51:16.690Z,30.20
2022-12-02T07:53:45.251Z,27.87
2022-12-02T07:56:13.869Z,29.27
2022-12-02T07:59:10.838Z,29.10
2022-12-02T08:01:31.319Z,27.80
2022-12-02T08:03:59.990Z,29.47
2022-12-02T08:06:34.319Z,29.17
2022-12-02T08:09:04.688Z,29.90
2022-12-02T08:11:33.314Z,34.27
2022-12-02T08:14:01.923Z,33.93
2022-12-02T08:16:30.634Z,32.50
2022-12-02T08:19:00.849Z,31.47
2022-12-02T08:21:32.290Z,32.30
2022-12-02T08:24:01.384Z,32.53
2022-12-02T08:26:29.958Z,33.07
2022-12-02T08:28:58.622Z,30.67
2022-12-02T08:31:27.384Z,30.07
2022-12-02T08:33:56.397Z,31.60
2022-12-02T08:36:30.635Z,30.27
2022-12-02T08:39:05.727Z,31.20
2022-12-02T08:41:34.860Z,31.83
2022-12-02T08:44:04.160Z,31.57
2022-12-02T08:46:33.653Z,32.83
2022-12-02T08:49:02.452Z,31.80
2022-12-02T08:51:32.349Z,30.27
2022-12-02T08:54:00.852Z,30.73
2022-12-02T08:56:29.559Z,32.10
2022-12-02T08:58:58.143Z,33.33
2022-12-02T09:01:26.742Z,37.70
2022-12-02T09:03:55.334Z,64.30
2022-12-02T09:06:23.970Z,37.57
2022-12-02T09:08:54.573Z,32.07
2022-12-02T09:11:23.301Z,37.00
2022-12-02T09:13:52.188Z,33.20
2022-12-02T09:16:20.799Z,33.80
2022-12-02T09:18:50.539Z,31.93
2022-12-02T09:21:19.085Z,32.63
2022-12-02T09:23:50.659Z,33.87
2022-12-02T09:26:21.098Z,34.70
2022-12-02T09:28:49.716Z,34.53
2022-12-02T09:31:18.307Z,32.07
2022-12-02T09:33:46.992Z,32.27
2022-12-02T09:36:15.582Z,33.13
2022-12-02T09:38:44.380Z,32.30
2022-12-02T09:41:13.007Z,32.17
2022-12-02T09:43:44.002Z,35.03
2022-12-02T09:46:12.742Z,38.77
2022-12-02T09:48:41.309Z,39.03
2022-12-02T09:51:12.136Z,33.57
2022-12-02T09:53:43.110Z,36.70
2022-12-02T09:56:18.505Z,35.30
2022-12-02T09:58:52.199Z,34.27
2022-12-02T10:01:21.186Z,34.13
2022-12-02T10:03:52.461Z,34.73
2022-12-02T10:06:25.242Z,34.47
2022-12-02T10:08:56.270Z,36.20
2022-12-02T10:11:28.689Z,35.07
2022-12-02T10:13:59.642Z,36.70
2022-12-02T10:16:29.760Z,36.53
2022-12-02T10:19:03.347Z,37.10
2022-12-02T10:21:32.233Z,36.67
2022-12-02T10:24:03.704Z,36.27
2022-12-02T10:26:48.053Z,35.73
2022-12-02T10:29:26.445Z,36.23
2022-12-02T10:31:58.118Z,39.50
2022-12-02T10:34:29.831Z,41.60
2022-12-02T10:37:15.799Z,39.50
2022-12-02T10:39:44.700Z,37.13
2022-12-02T10:42:21.473Z,37.73
2022-12-02T10:45:16.925Z,36.93
2022-12-02T10:47:46.077Z,36.53
2022-12-02T10:50:22.263Z,36.50
2022-12-02T10:52:54.497Z,34.47
2022-12-02T10:55:23.597Z,38.60
2022-12-02T10:57:53.355Z,38.70
2022-12-02T11:00:26.356Z,40.60
2022-12-02T11:02:58.725Z,37.67
2022-12-02T11:05:31.295Z,37.17
2022-12-02T11:08:03.304Z,40.80
2022-12-02T11:10:38.034Z,38.77
2022-12-02T11:13:33.220Z,38.63
2022-12-02T11:16:53.849Z,37.47
2022-12-02T11:19:46.891Z,35.20
2022-12-02T11:23:24.850Z,35.57
2022-12-02T11:26:02.851Z,34.57
2022-12-02T11:28:46.375Z,35.70
2022-12-02T11:31:27.465Z,35.30
2022-12-02T11:35:08.649Z,34.67
2022-12-02T11:37:45.914Z,34.90
2022-12-02T11:41:00.564Z,34.07
2022-12-02T11:44:24.846Z,34.23
2022-12-02T11:46:55.942Z,35.53
2022-12-02T11:49:36.420Z,36.33
2022-12-02T11:52:28.131Z,34.77
2022-12-02T11:55:14.452Z,36.67
2022-12-02T11:57:49.059Z,35.87
2022-12-02T12:00:37.211Z,34.90
2022-12-02T12:03:18.285Z,36.00
2022-12-02T12:06:10.147Z,35.60
2022-12-02T12:08:44.784Z,35.87
2022-12-02T12:11:26.606Z,35.77
2022-12-02T12:14:06.448Z,35.67
2022-12-02T12:16:39.206Z,35.13
2022-12-02T12:19:28.765Z,36.13
2022-12-02T12:24:41.069Z,42.42
2022-12-02T12:27:34.721Z,44.33
2022-12-02T12:30:03.538Z,36.00
2022-12-02T12:32:32.116Z,37.37
2022-12-02T12:35:00.817Z,35.00
2022-12-02T12:37:29.338Z,34.87
2022-12-02T12:39:59.252Z,34.13
2022-12-02T12:42:27.798Z,34.93
2022-12-02T12:44:56.367Z,33.97
2022-12-02T12:47:24.924Z,36.23
2022-12-02T12:49:53.604Z,33.50
2022-12-02T12:52:22.216Z,32.73
2022-12-02T12:54:51.589Z,33.87
2022-12-02T12:57:21.799Z,36.93
2022-12-02T12:59:50.652Z,39.80
2022-12-02T13:02:19.571Z,35.07
2022-12-02T13:04:48.152Z,36.23
2022-12-02T13:07:16.798Z,37.70
2022-12-02T13:09:45.599Z,35.77
2022-12-02T13:12:14.210Z,36.07
2022-12-02T13:14:44.329Z,36.67
2022-12-02T13:17:16.089Z,34.73
2022-12-02T13:19:45.069Z,35.43
2022-12-02T13:22:13.785Z,36.50
2022-12-02T13:24:43.296Z,38.07
2022-12-02T13:27:12.052Z,36.40
2022-12-02T13:29:40.674Z,41.83
2022-12-02T13:32:10.772Z,37.73
2022-12-02T13:34:39.465Z,39.23
2022-12-02T13:37:08.483Z,36.43
2022-12-02T13:39:37.155Z,35.87
2022-12-02T13:42:06.260Z,35.60
2022-12-02T13:44:36.354Z,34.60
2022-12-02T13:47:05.411Z,37.33
2022-12-02T13:49:35.651Z,35.43
2022-12-02T13:52:04.905Z,36.97
2022-12-02T13:54:34.423Z,35.93
2022-12-02T13:57:03.284Z,33.90
2022-12-02T13:59:37.785Z,35.10
2022-12-02T14:02:08.588Z,36.07
2022-12-02T14:04:38.945Z,33.40
2022-12-02T14:07:08.059Z,33.47
2022-12-02T14:09:36.666Z,34.57
2022-12-02T14:12:05.477Z,34.40
2022-12-02T14:14:34.147Z,35.37
2022-12-02T14:17:02.657Z,37.43
2022-12-02T14:19:31.215Z,36.60
2022-12-02T14:22:01.197Z,37.97
2022-12-02T14:24:29.734Z,34.13
2022-12-02T14:26:58.273Z,33.27
2022-12-02T14:29:26.859Z,31.93
2022-12-02T14:31:55.452Z,31.03
2022-12-02T14:34:24.034Z,32.67
2022-12-02T14:36:52.757Z,31.83
2022-12-02T14:39:22.691Z,31.77
2022-12-02T14:41:51.274Z,30.57
2022-12-02T14:44:19.889Z,28.57
2022-12-02T14:46:48.685Z,30.03
2022-12-02T14:52:06.025Z,28.87
2022-12-02T14:54:36.014Z,30.87
2022-12-02T14:57:05.262Z,29.43
2022-12-02T14:59:33.942Z,27.77
2022-12-02T15:02:02.540Z,28.60
2022-12-02T15:04:31.234Z,27.10
2022-12-02T15:06:59.869Z,25.47
2022-12-02T15:09:28.776Z,26.30
2022-12-02T15:11:58.840Z,26.23
2022-12-02T15:14:27.655Z,24.70
2022-12-02T15:16:56.219Z,24.87
2022-12-02T15:19:24.920Z,23.60
2022-12-02T15:21:53.472Z,22.97
2022-12-02T15:24:22.089Z,24.20
2022-12-02T15:26:55.261Z,26.27
2022-12-02T15:29:25.639Z,27.37
2022-12-02T15:31:54.402Z,46.07
2022-12-02T15:34:23.290Z,38.87
2022-12-02T15:36:51.860Z,25.23
2022-12-02T15:39:20.395Z,23.30
2022-12-02T15:41:48.906Z,23.53
2022-12-02T15:44:17.471Z,24.33
2022-12-02T15:46:47.389Z,24.77
2022-12-02T15:49:16.402Z,22.87
2022-12-02T15:51:44.988Z,22.67
2022-12-02T15:54:13.642Z,23.27
2022-12-02T15:56:42.254Z,22.30
2022-12-02T15:59:10.814Z,22.53
2022-12-02T16:01:39.493Z,23.80
2022-12-02T16:04:09.497Z,23.17
2022-12-02T16:06:38.055Z,23.47
2022-12-02T16:09:06.811Z,23.70
2022-12-02T16:11:35.426Z,24.97
2022-12-02T16:14:04.004Z,23.87
2022-12-02T16:16:32.653Z,22.87
2022-12-02T16:19:01.320Z,23.27
2022-12-02T16:21:31.402Z,24.30
2022-12-02T16:23:59.983Z,27.43
2022-12-02T16:26:28.601Z,24.40
2022-12-02T16:28:57.282Z,25.23
2022-12-02T16:31:26.391Z,25.50
2022-12-02T16:33:55.042Z,24.63
2022-12-02T16:36:23.605Z,25.30
2022-12-02T16:38:53.651Z,24.73
2022-12-02T16:41:22.263Z,24.33
2022-12-02T16:43:50.939Z,24.50
2022-12-02T16:46:20.366Z,24.70
2022-12-02T16:48:49.003Z,24.33
2022-12-02T16:51:17.685Z,24.80
2022-12-02T16:53:46.465Z,24.50
2022-12-02T16:56:16.428Z,25.93
2022-12-02T16:58:44.996Z,24.27
2022-12-02T17:01:13.640Z,24.93
2022-12-02T17:03:42.266Z,24.70
2022-12-02T17:06:11.170Z,25.17
2022-12-02T17:08:40.015Z,24.77
2022-12-02T17:11:09.134Z,25.00
2022-12-02T17:13:39.156Z,24.33
2022-12-02T17:16:08.164Z,26.03
2022-12-02T17:18:36.769Z,24.57
2022-12-02T17:21:05.586Z,24.50
2022-12-02T17:23:34.222Z,24.93
2022-12-02T17:26:02.968Z,25.17
2022-12-02T17:28:31.553Z,25.07
2022-12-02T17:31:01.457Z,26.13
2022-12-02T17:33:30.155Z,32.07
2022-12-02T17:35:58.892Z,26.37
2022-12-02T17:38:27.423Z,27.13
2022-12-02T17:41:10.397Z,24.67
2022-12-02T17:43:39.625Z,24.00
2022-12-02T17:46:09.678Z,24.87
2022-12-02T17:48:38.400Z,23.90
2022-12-02T17:51:07.646Z,23.97
2022-12-02T17:53:36.373Z,23.17
2022-12-02T17:56:05.361Z,23.93
2022-12-02T17:58:34.015Z,23.73
2022-12-02T18:01:07.648Z,24.90
2022-12-02T18:03:42.213Z,25.00
2022-12-02T18:06:11.367Z,25.87
2022-12-02T18:08:39.941Z,26.57
2022-12-02T18:11:08.575Z,25.67
2022-12-02T18:13:37.154Z,25.57
2022-12-02T18:16:07.847Z,25.23
2022-12-02T18:18:36.585Z,25.73
2022-12-02T18:21:06.778Z,25.63
2022-12-02T18:23:35.297Z,26.10
2022-12-02T18:26:03.932Z,24.70
2022-12-02T18:28:32.468Z,27.50
2022-12-02T18:31:02.541Z,25.83
2022-12-02T18:33:31.170Z,26.17
2022-12-02T18:35:59.910Z,24.97
2022-12-02T18:38:29.909Z,26.33
2022-12-02T18:40:58.535Z,32.50
2022-12-02T18:43:29.753Z,27.63
2022-12-02T18:46:01.019Z,27.67
2022-12-02T18:48:29.735Z,28.77
2022-12-02T18:50:58.225Z,26.93
2022-12-02T18:53:26.975Z,27.47
2022-12-02T18:55:56.893Z,31.23
2022-12-02T18:58:25.512Z,28.20
2022-12-02T19:00:54.135Z,26.80
2022-12-02T19:03:22.687Z,27.23
2022-12-02T19:05:51.302Z,28.57
2022-12-02T19:08:19.909Z,25.87
2022-12-02T19:10:48.514Z,29.77
2022-12-02T19:13:18.393Z,33.00
2022-12-02T19:15:47.060Z,27.50
2022-12-02T19:18:15.654Z,27.13
2022-12-02T19:20:44.718Z,26.53
2022-12-02T19:23:13.328Z,26.60
2022-12-02T19:25:46.965Z,27.87
2022-12-02T19:28:19.601Z,27.70
2022-12-02T19:30:48.269Z,27.00
2022-12-02T19:33:17.306Z,27.37
2022-12-02T19:35:45.856Z,28.20
2022-12-02T19:38:15.527Z,28.30
2022-12-02T19:40:45.828Z,29.47
2022-12-02T19:43:14.748Z,29.83
2022-12-02T19:45:45.478Z,30.73
2022-12-02T19:48:14.134Z,31.80
2022-12-02T19:50:42.686Z,33.60
2022-12-02T19:53:11.350Z,34.03
2022-12-02T19:55:40.460Z,35.97
2022-12-02T19:58:09.421Z,34.57
2022-12-02T20:00:38.170Z,37.57
2022-12-02T20:03:08.287Z,47.20
2022-12-02T20:05:38.289Z,42.50
2022-12-02T20:08:07.060Z,44.47
2022-12-02T20:10:35.834Z,45.47
2022-12-02T20:13:04.423Z,58.67
2022-12-02T20:15:33.098Z,56.53
2022-12-02T20:18:01.629Z,52.77
2022-12-02T20:20:31.705Z,43.00
2022-12-02T20:23:00.295Z,51.60
2022-12-02T20:25:28.806Z,54.80
2022-12-02T20:27:57.674Z,45.50
2022-12-02T20:30:26.662Z,46.30
2022-12-02T20:32:55.239Z,51.53
2022-12-02T20:35:23.839Z,36.83
2022-12-02T20:37:53.894Z,40.37
2022-12-02T20:40:22.462Z,34.30
2022-12-02T20:42:51.046Z,33.57
2022-12-02T20:45:19.926Z,33.40
2022-12-02T20:47:48.518Z,44.37
2022-12-02T20:50:17.245Z,35.90
2022-12-02T20:52:51.558Z,36.50
2022-12-02T20:55:23.765Z,40.40
2022-12-02T20:57:52.687Z,47.00
2022-12-02T21:00:21.652Z,46.20
2022-12-02T21:02:50.331Z,37.63
2022-12-02T21:05:19.032Z,40.73
2022-12-02T21:07:48.004Z,35.70
2022-12-02T21:10:16.798Z,36.87
2022-12-02T21:12:46.892Z,38.87
2022-12-02T21:15:17.224Z,36.40
2022-12-02T21:17:45.848Z,35.37
2022-12-02T21:20:19.011Z,35.87
2022-12-02T21:22:47.887Z,36.17
2022-12-02T21:25:16.944Z,34.77
2022-12-02T21:27:46.838Z,41.20
2022-12-02T21:30:16.388Z,36.97
2022-12-02T21:32:44.959Z,34.20
2022-12-02T21:35:13.607Z,33.83
2022-12-02T21:37:42.133Z,35.23
2022-12-02T21:40:13.577Z,34.97
2022-12-02T21:42:42.780Z,37.87
2022-12-02T21:45:13.842Z,35.27
2022-12-02T21:47:42.586Z,34.10
2022-12-02T21:50:13.916Z,34.20
2022-12-02T21:52:42.614Z,32.60
2022-12-02T21:55:11.215Z,34.47
2022-12-02T21:57:39.950Z,33.33
2022-12-02T22:00:10.327Z,37.87
2022-12-02T22:02:40.414Z,34.83
2022-12-02T22:05:09.788Z,37.90
2022-12-02T22:07:52.279Z,40.73
2022-12-02T22:10:24.148Z,38.47
2022-12-02T22:12:54.277Z,39.83
2022-12-02T22:15:24.226Z,44.73
2022-12-02T22:17:54.180Z,44.67
2022-12-02T22:20:22.899Z,39.80
2022-12-02T22:22:51.485Z,41.60
2022-12-02T22:25:20.240Z,37.23
2022-12-02T22:27:48.841Z,37.67
2022-12-02T22:30:18.136Z,38.03
2022-12-02T22:32:46.756Z,38.47
2022-12-02T22:35:16.970Z,42.50
2022-12-02T22:37:45.601Z,41.67
2022-12-02T22:40:15.043Z,44.17
2022-12-02T22:42:43.701Z,46.70
2022-12-02T22:45:12.920Z,44.73
2022-12-02T22:47:41.507Z,52.60
2022-12-02T22:50:11.451Z,48.23
2022-12-02T22:52:41.488Z,43.57
2022-12-02T22:55:10.806Z,48.13
2022-12-02T22:57:39.332Z,47.17
2022-12-02T23:00:12.382Z,47.50
2022-12-02T23:02:41.020Z,44.00
2022-12-02T23:05:10.464Z,40.50
2022-12-02T23:07:40.455Z,39.80
2022-12-02T23:10:10.763Z,46.23
2022-12-02T23:12:39.293Z,37.70
2022-12-02T23:15:35.174Z,37.93
2022-12-02T23:17:58.325Z,38.17
2022-12-02T23:20:26.969Z,36.73
2022-12-02T23:22:56.875Z,37.90
2022-12-02T23:25:25.790Z,40.93
2022-12-02T23:27:54.277Z,36.37
2022-12-02T23:30:28.492Z,38.03
2022-12-02T23:32:58.081Z,35.30
2022-12-02T23:35:27.071Z,35.33
2022-12-02T23:37:56.978Z,35.73
2022-12-02T23:40:25.682Z,40.27
2022-12-02T23:42:54.368Z,37.83
2022-12-02T23:45:23.042Z,39.77
2022-12-02T23:47:51.588Z,43.13
2022-12-02T23:50:20.395Z,46.03
2022-12-02T23:52:49.251Z,42.70
2022-12-02T23:55:19.450Z,50.93
2022-12-02T23:57:48.211Z,48.63
